createdAt,value
2022-09-28T00:08:20.707Z,10.84
2022-09-28T00:20:20.652Z,10.83
2022-09-28T00:32:20.821Z,10.82
2022-09-28T00:44:20.612Z,10.81
2022-09-28T00:56:20.737Z,10.82
2022-09-28T01:08:21.287Z,10.81
2022-09-28T01:20:20.643Z,10.81
2022-09-28T01:32:20.697Z,10.80
2022-09-28T01:44:20.724Z,10.80
2022-09-28T01:56:21.055Z,10.79
2022-09-28T02:08:21.234Z,10.79
2022-09-28T02:20:20.674Z,10.78
2022-09-28T02:32:20.754Z,10.78
2022-09-28T02:44:20.864Z,10.77
2022-09-28T02:56:20.615Z,10.75
2022-09-28T03:08:20.742Z,10.76
2022-09-28T03:20:21.195Z,10.76
2022-09-28T03:32:20.862Z,10.75
2022-09-28T03:44:21.069Z,10.74
2022-09-28T03:56:21.344Z,10.74
2022-09-28T04:08:21.283Z,10.73
2022-09-28T04:20:21.303Z,10.72
2022-09-28T04:32:20.926Z,10.72
2022-09-28T04:44:21.082Z,10.71
2022-09-28T04:56:20.993Z,10.70
2022-09-28T05:08:21.136Z,10.70
2022-09-28T05:20:20.550Z,10.69
2022-09-28T05:32:21.276Z,10.68
2022-09-28T05:44:21.461Z,10.68
2022-09-28T05:56:21.527Z,10.66
2022-09-28T06:08:20.660Z,10.67
2022-09-28T06:20:21.448Z,10.66
2022-09-28T06:32:21.398Z,10.65
2022-09-28T06:44:21.156Z,10.65
2022-09-28T06:56:20.707Z,10.64
2022-09-28T07:08:20.582Z,10.67
2022-09-28T07:20:20.696Z,10.68
2022-09-28T07:32:21.505Z,10.73
2022-09-28T07:44:21.208Z,10.76
2022-09-28T07:56:21.172Z,10.81
2022-09-28T08:08:21.301Z,10.99
2022-09-28T08:20:21.020Z,10.88
2022-09-28T08:32:20.766Z,10.94
2022-09-28T08:44:21.746Z,11.00
2022-09-28T08:56:20.988Z,11.16
2022-09-28T09:08:21.083Z,11.13
2022-09-28T09:20:21.149Z,11.14
2022-09-28T09:32:21.525Z,11.13
2022-09-28T09:44:20.653Z,11.19
2022-09-28T09:56:21.166Z,11.54
2022-09-28T10:08:21.196Z,11.42
2022-09-28T10:20:20.964Z,11.51
2022-09-28T10:32:21.165Z,11.70
2022-09-28T10:44:20.702Z,11.79
2022-09-28T10:56:21.323Z,11.90
2022-09-28T11:08:20.707Z,11.81
2022-09-28T11:20:24.793Z,11.86
2022-09-28T11:32:20.950Z,11.94
2022-09-28T11:44:20.729Z,11.92
2022-09-28T11:56:20.791Z,11.91
2022-09-28T12:08:20.971Z,11.94
2022-09-28T12:20:20.908Z,11.94
2022-09-28T12:32:20.981Z,11.95
2022-09-28T12:44:20.970Z,11.93
2022-09-28T12:56:21.781Z,11.96
2022-09-28T13:08:21.581Z,11.97
2022-09-28T13:20:21.186Z,11.96
2022-09-28T13:32:20.596Z,11.96
2022-09-28T13:44:21.086Z,11.96
2022-09-28T13:56:20.595Z,11.96
2022-09-28T14:08:20.979Z,11.96
2022-09-28T14:20:21.191Z,11.96
2022-09-28T14:32:21.419Z,11.98
2022-09-28T14:44:20.858Z,12.01
2022-09-28T14:56:20.863Z,12.01
2022-09-28T15:08:20.682Z,12.00
2022-09-28T15:20:20.842Z,11.99
2022-09-28T15:32:21.387Z,11.99
2022-09-28T15:44:20.987Z,11.97
2022-09-28T15:56:20.911Z,11.96
2022-09-28T16:08:20.552Z,11.96
2022-09-28T16:20:20.646Z,11.95
2022-09-28T16:32:21.135Z,11.93
2022-09-28T16:44:20.819Z,11.92
2022-09-28T16:56:21.078Z,11.91
2022-09-28T17:08:21.271Z,11.90
2022-09-28T17:20:20.564Z,11.88
2022-09-28T17:32:20.661Z,11.86
2022-09-28T17:44:21.007Z,11.84
2022-09-28T17:56:20.968Z,11.82
2022-09-28T18:08:21.143Z,11.82
2022-09-28T18:20:21.140Z,11.79
2022-09-28T18:32:21.326Z,11.78
2022-09-28T18:44:20.745Z,11.76
2022-09-28T18:56:21.016Z,11.75
2022-09-28T19:08:24.288Z,11.74
2022-09-28T19:20:20.874Z,11.71
2022-09-28T19:32:20.887Z,11.71
2022-09-28T19:44:20.978Z,11.69
2022-09-28T19:56:21.070Z,11.68
2022-09-28T20:08:21.281Z,11.66
2022-09-28T20:20:20.950Z,11.65
2022-09-28T20:32:20.622Z,11.64
2022-09-28T20:44:20.855Z,11.62
2022-09-28T20:56:20.805Z,11.61
2022-09-28T21:08:20.792Z,11.60
2022-09-28T21:20:20.660Z,11.58
2022-09-28T21:32:20.612Z,11.56
2022-09-28T21:44:20.965Z,11.54
2022-09-28T21:56:20.735Z,11.53
2022-09-28T22:08:21.182Z,11.52
2022-09-28T22:20:20.625Z,11.51
2022-09-28T22:32:20.798Z,11.50
2022-09-28T22:44:20.632Z,11.47
2022-09-28T22:56:21.315Z,11.47
2022-09-28T23:08:21.011Z,11.46
2022-09-28T23:20:20.902Z,11.44
2022-09-28T23:32:20.650Z,11.42
2022-09-28T23:44:21.100Z,11.41
2022-09-28T23:56:21.172Z,11.40
